sensor_id;sensor_type;location;lat;lon;timestamp;P1;durP1;ratioP1;P2;durP2;ratioP2
47784;SDS011;35233;55.686;37.848;2023-11-19T00:01:55;17.30;;;10.93;;
47784;SDS011;35233;55.686;37.848;2023-11-19T00:04:21;18.00;;;11.15;;
47784;SDS011;35233;55.686;37.848;2023-11-19T00:06:47;20.52;;;11.90;;
47784;SDS011;35233;55.686;37.848;2023-11-19T00:09:13;15.63;;;10.93;;
47784;SDS011;35233;55.686;37.848;2023-11-19T00:11:40;17.95;;;10.65;;
47784;SDS011;35233;55.686;37.848;2023-11-19T00:14:05;19.75;;;10.32;;
47784;SDS011;35233;55.686;37.848;2023-11-19T00:16:33;16.50;;;10.68;;
47784;SDS011;35233;55.686;37.848;2023-11-19T00:18:59;19.02;;;10.95;;
47784;SDS011;35233;55.686;37.848;2023-11-19T00:21:25;17.63;;;10.43;;
47784;SDS011;35233;55.686;37.848;2023-11-19T00:23:53;15.07;;;10.57;;
47784;SDS011;35233;55.686;37.848;2023-11-19T00:26:19;17.95;;;10.77;;
47784;SDS011;35233;55.686;37.848;2023-11-19T00:28:45;17.02;;;10.50;;
47784;SDS011;35233;55.686;37.848;2023-11-19T00:31:13;14.07;;;9.45;;
47784;SDS011;35233;55.686;37.848;2023-11-19T00:33:38;18.00;;;10.07;;
47784;SDS011;35233;55.686;37.848;2023-11-19T00:36:04;16.77;;;10.85;;
47784;SDS011;35233;55.686;37.848;2023-11-19T00:38:30;15.77;;;10.45;;
47784;SDS011;35233;55.686;37.848;2023-11-19T00:40:56;13.98;;;9.45;;
47784;SDS011;35233;55.686;37.848;2023-11-19T00:43:21;15.63;;;10.10;;
47784;SDS011;35233;55.686;37.848;2023-11-19T00:45:47;16.30;;;9.75;;
47784;SDS011;35233;55.686;37.848;2023-11-19T00:48:15;19.83;;;9.93;;
47784;SDS011;35233;55.686;37.848;2023-11-19T00:50:41;20.17;;;10.52;;
47784;SDS011;35233;55.686;37.848;2023-11-19T00:53:09;17.85;;;10.25;;
47784;SDS011;35233;55.686;37.848;2023-11-19T00:55:35;15.15;;;10.10;;
47784;SDS011;35233;55.686;37.848;2023-11-19T00:58:00;16.38;;;10.25;;
47784;SDS011;35233;55.686;37.848;2023-11-19T01:00:26;17.20;;;9.70;;
47784;SDS011;35233;55.686;37.848;2023-11-19T01:02:52;16.50;;;9.90;;
47784;SDS011;35233;55.686;37.848;2023-11-19T01:05:18;14.25;;;9.80;;
47784;SDS011;35233;55.686;37.848;2023-11-19T01:07:47;15.85;;;10.50;;
47784;SDS011;35233;55.686;37.848;2023-11-19T01:10:13;16.13;;;9.88;;
47784;SDS011;35233;55.686;37.848;2023-11-19T01:12:38;14.27;;;9.82;;
47784;SDS011;35233;55.686;37.848;2023-11-19T01:15:05;15.05;;;10.05;;
47784;SDS011;35233;55.686;37.848;2023-11-19T01:17:31;15.48;;;9.85;;
47784;SDS011;35233;55.686;37.848;2023-11-19T01:19:57;16.92;;;10.45;;
47784;SDS011;35233;55.686;37.848;2023-11-19T01:22:22;15.90;;;9.85;;
47784;SDS011;35233;55.686;37.848;2023-11-19T01:24:48;15.98;;;10.18;;
47784;SDS011;35233;55.686;37.848;2023-11-19T01:27:13;15.18;;;9.60;;
47784;SDS011;35233;55.686;37.848;2023-11-19T01:29:39;14.88;;;9.45;;
47784;SDS011;35233;55.686;37.848;2023-11-19T01:32:05;14.80;;;10.05;;
47784;SDS011;35233;55.686;37.848;2023-11-19T01:34:30;15.30;;;9.30;;
47784;SDS011;35233;55.686;37.848;2023-11-19T01:36:56;14.73;;;9.52;;
47784;SDS011;35233;55.686;37.848;2023-11-19T01:39:21;14.45;;;9.98;;
47784;SDS011;35233;55.686;37.848;2023-11-19T01:41:47;15.38;;;9.82;;
47784;SDS011;35233;55.686;37.848;2023-11-19T01:44:13;16.73;;;10.25;;
47784;SDS011;35233;55.686;37.848;2023-11-19T01:46:40;16.75;;;10.25;;
47784;SDS011;35233;55.686;37.848;2023-11-19T01:49:07;14.50;;;9.32;;
47784;SDS011;35233;55.686;37.848;2023-11-19T01:51:33;17.45;;;9.88;;
47784;SDS011;35233;55.686;37.848;2023-11-19T01:53:59;16.38;;;9.35;;
47784;SDS011;35233;55.686;37.848;2023-11-19T01:56:27;14.23;;;9.73;;
47784;SDS011;35233;55.686;37.848;2023-11-19T01:58:53;17.92;;;9.73;;
47784;SDS011;35233;55.686;37.848;2023-11-19T02:01:21;16.13;;;10.02;;
47784;SDS011;35233;55.686;37.848;2023-11-19T02:03:47;19.20;;;9.80;;
47784;SDS011;35233;55.686;37.848;2023-11-19T02:06:12;16.58;;;9.75;;
47784;SDS011;35233;55.686;37.848;2023-11-19T02:08:38;13.73;;;9.90;;
47784;SDS011;35233;55.686;37.848;2023-11-19T02:11:04;17.00;;;10.07;;
47784;SDS011;35233;55.686;37.848;2023-11-19T02:13:32;15.15;;;10.18;;
47784;SDS011;35233;55.686;37.848;2023-11-19T02:15:57;13.48;;;9.52;;
47784;SDS011;35233;55.686;37.848;2023-11-19T02:18:25;17.42;;;9.40;;
47784;SDS011;35233;55.686;37.848;2023-11-19T02:20:56;14.63;;;9.38;;
47784;SDS011;35233;55.686;37.848;2023-11-19T02:23:22;15.85;;;10.23;;
47784;SDS011;35233;55.686;37.848;2023-11-19T02:28:20;16.88;;;9.77;;
47784;SDS011;35233;55.686;37.848;2023-11-19T02:30:45;17.85;;;10.27;;
47784;SDS011;35233;55.686;37.848;2023-11-19T02:33:11;15.98;;;9.73;;
47784;SDS011;35233;55.686;37.848;2023-11-19T02:35:37;15.77;;;9.25;;
47784;SDS011;35233;55.686;37.848;2023-11-19T02:38:03;13.35;;;9.27;;
47784;SDS011;35233;55.686;37.848;2023-11-19T02:40:29;14.23;;;9.63;;
47784;SDS011;35233;55.686;37.848;2023-11-19T02:42:54;15.10;;;9.48;;
47784;SDS011;35233;55.686;37.848;2023-11-19T02:45:21;16.27;;;10.38;;
47784;SDS011;35233;55.686;37.848;2023-11-19T02:47:48;16.23;;;10.18;;
47784;SDS011;35233;55.686;37.848;2023-11-19T02:50:13;16.00;;;9.75;;
47784;SDS011;35233;55.686;37.848;2023-11-19T02:52:42;12.65;;;9.15;;
47784;SDS011;35233;55.686;37.848;2023-11-19T02:55:08;14.88;;;9.80;;
47784;SDS011;35233;55.686;37.848;2023-11-19T02:57:37;14.07;;;9.15;;
47784;SDS011;35233;55.686;37.848;2023-11-19T03:00:16;17.77;;;9.60;;
47784;SDS011;35233;55.686;37.848;2023-11-19T03:02:48;17.65;;;10.25;;
47784;SDS011;35233;55.686;37.848;2023-11-19T03:05:23;15.63;;;9.02;;
47784;SDS011;35233;55.686;37.848;2023-11-19T03:07:49;19.13;;;10.45;;
47784;SDS011;35233;55.686;37.848;2023-11-19T03:10:15;14.75;;;9.43;;
47784;SDS011;35233;55.686;37.848;2023-11-19T03:12:41;15.15;;;9.93;;
47784;SDS011;35233;55.686;37.848;2023-11-19T03:15:07;15.90;;;10.55;;
47784;SDS011;35233;55.686;37.848;2023-11-19T03:17:44;18.70;;;10.43;;
47784;SDS011;35233;55.686;37.848;2023-11-19T03:20:10;14.55;;;9.65;;
47784;SDS011;35233;55.686;37.848;2023-11-19T03:22:40;14.98;;;9.90;;
47784;SDS011;35233;55.686;37.848;2023-11-19T03:25:09;16.27;;;10.25;;
47784;SDS011;35233;55.686;37.848;2023-11-19T03:27:38;17.40;;;11.23;;
47784;SDS011;35233;55.686;37.848;2023-11-19T03:30:06;19.42;;;10.85;;
47784;SDS011;35233;55.686;37.848;2023-11-19T03:32:34;15.18;;;10.18;;
47784;SDS011;35233;55.686;37.848;2023-11-19T03:35:00;18.55;;;10.73;;
47784;SDS011;35233;55.686;37.848;2023-11-19T03:37:26;16.08;;;10.20;;
47784;SDS011;35233;55.686;37.848;2023-11-19T03:39:53;15.85;;;9.77;;
47784;SDS011;35233;55.686;37.848;2023-11-19T03:42:20;16.15;;;9.73;;
47784;SDS011;35233;55.686;37.848;2023-11-19T03:44:48;16.23;;;11.00;;
47784;SDS011;35233;55.686;37.848;2023-11-19T03:47:15;16.48;;;11.07;;
47784;SDS011;35233;55.686;37.848;2023-11-19T03:49:40;19.70;;;10.90;;
47784;SDS011;35233;55.686;37.848;2023-11-19T03:52:05;15.43;;;10.02;;
47784;SDS011;35233;55.686;37.848;2023-11-19T03:54:31;18.08;;;10.85;;
47784;SDS011;35233;55.686;37.848;2023-11-19T03:56:57;17.35;;;10.38;;
47784;SDS011;35233;55.686;37.848;2023-11-19T03:59:25;15.25;;;10.32;;
47784;SDS011;35233;55.686;37.848;2023-11-19T04:01:50;18.48;;;10.35;;
47784;SDS011;35233;55.686;37.848;2023-11-19T04:04:18;16.77;;;10.13;;
47784;SDS011;35233;55.686;37.848;2023-11-19T04:06:44;16.30;;;10.73;;
47784;SDS011;35233;55.686;37.848;2023-11-19T04:09:09;17.88;;;10.35;;
47784;SDS011;35233;55.686;37.848;2023-11-19T04:11:35;20.38;;;11.30;;
47784;SDS011;35233;55.686;37.848;2023-11-19T04:14:01;16.33;;;11.15;;
47784;SDS011;35233;55.686;37.848;2023-11-19T04:16:27;15.57;;;11.05;;
47784;SDS011;35233;55.686;37.848;2023-11-19T04:18:53;15.98;;;10.68;;
47784;SDS011;35233;55.686;37.848;2023-11-19T04:21:19;18.23;;;10.82;;
47784;SDS011;35233;55.686;37.848;2023-11-19T04:23:44;16.73;;;10.77;;
47784;SDS011;35233;55.686;37.848;2023-11-19T04:26:10;18.90;;;11.15;;
47784;SDS011;35233;55.686;37.848;2023-11-19T04:28:35;16.33;;;11.00;;
47784;SDS011;35233;55.686;37.848;2023-11-19T04:31:01;17.30;;;11.20;;
47784;SDS011;35233;55.686;37.848;2023-11-19T04:33:28;18.35;;;11.40;;
47784;SDS011;35233;55.686;37.848;2023-11-19T04:35:53;17.38;;;11.27;;
47784;SDS011;35233;55.686;37.848;2023-11-19T04:38:19;14.75;;;10.15;;
47784;SDS011;35233;55.686;37.848;2023-11-19T04:40:44;17.35;;;10.65;;
47784;SDS011;35233;55.686;37.848;2023-11-19T04:43:10;16.30;;;11.02;;
47784;SDS011;35233;55.686;37.848;2023-11-19T04:45:35;16.42;;;10.25;;
47784;SDS011;35233;55.686;37.848;2023-11-19T04:48:01;17.02;;;10.95;;
47784;SDS011;35233;55.686;37.848;2023-11-19T04:50:27;17.55;;;10.52;;
47784;SDS011;35233;55.686;37.848;2023-11-19T04:52:52;17.50;;;11.20;;
47784;SDS011;35233;55.686;37.848;2023-11-19T04:55:19;15.38;;;10.73;;
47784;SDS011;35233;55.686;37.848;2023-11-19T04:57:44;17.42;;;10.25;;
47784;SDS011;35233;55.686;37.848;2023-11-19T05:00:10;26.70;;;11.65;;
47784;SDS011;35233;55.686;37.848;2023-11-19T05:02:36;15.45;;;10.73;;
47784;SDS011;35233;55.686;37.848;2023-11-19T05:05:02;16.17;;;9.90;;
47784;SDS011;35233;55.686;37.848;2023-11-19T05:07:29;15.50;;;10.52;;
47784;SDS011;35233;55.686;37.848;2023-11-19T05:09:55;16.92;;;11.02;;
47784;SDS011;35233;55.686;37.848;2023-11-19T05:12:20;17.60;;;10.45;;
47784;SDS011;35233;55.686;37.848;2023-11-19T05:14:46;17.42;;;11.15;;
47784;SDS011;35233;55.686;37.848;2023-11-19T05:17:15;15.27;;;10.68;;
47784;SDS011;35233;55.686;37.848;2023-11-19T05:19:43;16.50;;;10.63;;
47784;SDS011;35233;55.686;37.848;2023-11-19T05:22:08;17.38;;;10.82;;
47784;SDS011;35233;55.686;37.848;2023-11-19T05:24:34;15.65;;;11.35;;
47784;SDS011;35233;55.686;37.848;2023-11-19T05:27:01;16.25;;;10.68;;
47784;SDS011;35233;55.686;37.848;2023-11-19T05:29:26;16.35;;;10.82;;
47784;SDS011;35233;55.686;37.848;2023-11-19T05:31:52;18.25;;;11.40;;
47784;SDS011;35233;55.686;37.848;2023-11-19T05:34:19;16.00;;;11.27;;
47784;SDS011;35233;55.686;37.848;2023-11-19T05:36:45;18.23;;;11.68;;
47784;SDS011;35233;55.686;37.848;2023-11-19T05:39:10;17.25;;;11.82;;
47784;SDS011;35233;55.686;37.848;2023-11-19T05:41:36;18.02;;;11.57;;
47784;SDS011;35233;55.686;37.848;2023-11-19T05:44:02;19.55;;;11.57;;
47784;SDS011;35233;55.686;37.848;2023-11-19T05:46:27;20.85;;;11.40;;
47784;SDS011;35233;55.686;37.848;2023-11-19T05:48:53;17.30;;;11.50;;
47784;SDS011;35233;55.686;37.848;2023-11-19T05:51:18;18.67;;;11.85;;
47784;SDS011;35233;55.686;37.848;2023-11-19T05:53:44;15.80;;;11.70;;
47784;SDS011;35233;55.686;37.848;2023-11-19T05:56:15;16.80;;;11.73;;
47784;SDS011;35233;55.686;37.848;2023-11-19T05:58:46;16.40;;;11.65;;
47784;SDS011;35233;55.686;37.848;2023-11-19T06:01:13;17.48;;;11.95;;
47784;SDS011;35233;55.686;37.848;2023-11-19T06:03:38;17.98;;;12.38;;
47784;SDS011;35233;55.686;37.848;2023-11-19T06:06:04;17.38;;;12.13;;
47784;SDS011;35233;55.686;37.848;2023-11-19T06:08:30;18.02;;;12.40;;
47784;SDS011;35233;55.686;37.848;2023-11-19T06:10:56;15.88;;;11.45;;
47784;SDS011;35233;55.686;37.848;2023-11-19T06:13:22;16.55;;;11.57;;
47784;SDS011;35233;55.686;37.848;2023-11-19T06:15:47;20.42;;;12.68;;
47784;SDS011;35233;55.686;37.848;2023-11-19T06:18:13;21.20;;;12.82;;
47784;SDS011;35233;55.686;37.848;2023-11-19T06:20:40;19.50;;;12.82;;
47784;SDS011;35233;55.686;37.848;2023-11-19T06:23:05;20.30;;;12.63;;
47784;SDS011;35233;55.686;37.848;2023-11-19T06:25:31;16.73;;;12.02;;
47784;SDS011;35233;55.686;37.848;2023-11-19T06:27:58;16.58;;;12.05;;
47784;SDS011;35233;55.686;37.848;2023-11-19T06:30:23;19.45;;;11.63;;
47784;SDS011;35233;55.686;37.848;2023-11-19T06:32:49;15.52;;;11.15;;
47784;SDS011;35233;55.686;37.848;2023-11-19T06:35:15;17.92;;;12.65;;
47784;SDS011;35233;55.686;37.848;2023-11-19T06:37:41;17.55;;;12.98;;
47784;SDS011;35233;55.686;37.848;2023-11-19T06:40:07;19.60;;;11.73;;
47784;SDS011;35233;55.686;37.848;2023-11-19T06:42:34;19.30;;;12.63;;
47784;SDS011;35233;55.686;37.848;2023-11-19T06:45:00;18.33;;;12.10;;
47784;SDS011;35233;55.686;37.848;2023-11-19T06:47:26;18.73;;;12.15;;
47784;SDS011;35233;55.686;37.848;2023-11-19T06:49:53;17.67;;;11.52;;
47784;SDS011;35233;55.686;37.848;2023-11-19T06:52:19;19.15;;;12.70;;
47784;SDS011;35233;55.686;37.848;2023-11-19T06:54:48;18.63;;;12.77;;
47784;SDS011;35233;55.686;37.848;2023-11-19T06:57:17;19.75;;;12.35;;
47784;SDS011;35233;55.686;37.848;2023-11-19T06:59:42;18.45;;;12.43;;
47784;SDS011;35233;55.686;37.848;2023-11-19T07:02:08;22.35;;;12.27;;
47784;SDS011;35233;55.686;37.848;2023-11-19T07:04:34;19.17;;;12.75;;
47784;SDS011;35233;55.686;37.848;2023-11-19T07:06:59;17.88;;;11.77;;
47784;SDS011;35233;55.686;37.848;2023-11-19T07:09:25;19.33;;;11.73;;
47784;SDS011;35233;55.686;37.848;2023-11-19T07:11:51;19.52;;;12.13;;
47784;SDS011;35233;55.686;37.848;2023-11-19T07:14:17;16.27;;;11.05;;
47784;SDS011;35233;55.686;37.848;2023-11-19T07:16:43;19.00;;;10.80;;
47784;SDS011;35233;55.686;37.848;2023-11-19T07:19:09;19.27;;;11.85;;
47784;SDS011;35233;55.686;37.848;2023-11-19T07:21:35;15.43;;;10.70;;
47784;SDS011;35233;55.686;37.848;2023-11-19T07:24:04;17.27;;;12.02;;
47784;SDS011;35233;55.686;37.848;2023-11-19T07:26:30;16.27;;;11.15;;
47784;SDS011;35233;55.686;37.848;2023-11-19T07:28:56;17.00;;;11.43;;
47784;SDS011;35233;55.686;37.848;2023-11-19T07:31:33;15.05;;;10.23;;
47784;SDS011;35233;55.686;37.848;2023-11-19T07:33:58;20.05;;;11.68;;
47784;SDS011;35233;55.686;37.848;2023-11-19T07:36:23;15.70;;;10.98;;
47784;SDS011;35233;55.686;37.848;2023-11-19T07:38:49;15.40;;;11.40;;
47784;SDS011;35233;55.686;37.848;2023-11-19T07:41:15;16.92;;;11.73;;
47784;SDS011;35233;55.686;37.848;2023-11-19T07:43:42;18.95;;;11.65;;
47784;SDS011;35233;55.686;37.848;2023-11-19T07:46:13;16.52;;;11.18;;
47784;SDS011;35233;55.686;37.848;2023-11-19T07:48:42;16.67;;;11.10;;
47784;SDS011;35233;55.686;37.848;2023-11-19T07:51:07;14.65;;;11.10;;
47784;SDS011;35233;55.686;37.848;2023-11-19T07:53:33;17.65;;;11.35;;
47784;SDS011;35233;55.686;37.848;2023-11-19T07:55:59;17.40;;;11.95;;
47784;SDS011;35233;55.686;37.848;2023-11-19T07:58:25;16.88;;;11.05;;
47784;SDS011;35233;55.686;37.848;2023-11-19T08:00:51;17.88;;;11.68;;
47784;SDS011;35233;55.686;37.848;2023-11-19T08:03:17;14.43;;;10.38;;
47784;SDS011;35233;55.686;37.848;2023-11-19T08:05:44;14.88;;;11.32;;
47784;SDS011;35233;55.686;37.848;2023-11-19T08:08:11;15.77;;;10.32;;
47784;SDS011;35233;55.686;37.848;2023-11-19T08:10:36;15.27;;;10.20;;
47784;SDS011;35233;55.686;37.848;2023-11-19T08:13:02;14.13;;;10.13;;
47784;SDS011;35233;55.686;37.848;2023-11-19T08:15:28;16.38;;;10.63;;
47784;SDS011;35233;55.686;37.848;2023-11-19T08:17:53;17.08;;;10.57;;
47784;SDS011;35233;55.686;37.848;2023-11-19T08:20:19;16.92;;;10.13;;
47784;SDS011;35233;55.686;37.848;2023-11-19T08:22:44;14.38;;;9.85;;
47784;SDS011;35233;55.686;37.848;2023-11-19T08:25:23;14.82;;;9.82;;
47784;SDS011;35233;55.686;37.848;2023-11-19T08:28:16;16.83;;;10.48;;
47784;SDS011;35233;55.686;37.848;2023-11-19T08:30:41;16.63;;;10.15;;
47784;SDS011;35233;55.686;37.848;2023-11-19T08:33:09;16.05;;;10.65;;
47784;SDS011;35233;55.686;37.848;2023-11-19T08:35:34;16.40;;;10.20;;
47784;SDS011;35233;55.686;37.848;2023-11-19T08:38:00;13.95;;;9.93;;
47784;SDS011;35233;55.686;37.848;2023-11-19T08:40:26;16.00;;;10.63;;
47784;SDS011;35233;55.686;37.848;2023-11-19T08:42:52;15.20;;;10.40;;
47784;SDS011;35233;55.686;37.848;2023-11-19T08:45:18;16.08;;;10.00;;
47784;SDS011;35233;55.686;37.848;2023-11-19T08:47:43;14.20;;;9.88;;
47784;SDS011;35233;55.686;37.848;2023-11-19T08:50:10;15.13;;;10.00;;
47784;SDS011;35233;55.686;37.848;2023-11-19T08:52:36;14.77;;;9.30;;
47784;SDS011;35233;55.686;37.848;2023-11-19T08:55:03;13.07;;;8.63;;
47784;SDS011;35233;55.686;37.848;2023-11-19T08:57:30;13.55;;;8.95;;
47784;SDS011;35233;55.686;37.848;2023-11-19T08:59:56;14.10;;;8.75;;
47784;SDS011;35233;55.686;37.848;2023-11-19T09:02:21;12.73;;;8.98;;
47784;SDS011;35233;55.686;37.848;2023-11-19T09:04:47;14.05;;;9.38;;
47784;SDS011;35233;55.686;37.848;2023-11-19T09:07:13;12.52;;;8.48;;
47784;SDS011;35233;55.686;37.848;2023-11-19T09:09:38;12.50;;;8.35;;
47784;SDS011;35233;55.686;37.848;2023-11-19T09:12:04;12.77;;;7.68;;
47784;SDS011;35233;55.686;37.848;2023-11-19T09:14:30;12.50;;;8.13;;
47784;SDS011;35233;55.686;37.848;2023-11-19T09:16:56;13.77;;;8.98;;
47784;SDS011;35233;55.686;37.848;2023-11-19T09:19:21;10.15;;;7.47;;
47784;SDS011;35233;55.686;37.848;2023-11-19T09:21:47;10.90;;;8.02;;
47784;SDS011;35233;55.686;37.848;2023-11-19T09:24:14;12.38;;;7.70;;
47784;SDS011;35233;55.686;37.848;2023-11-19T09:26:43;12.88;;;8.30;;
47784;SDS011;35233;55.686;37.848;2023-11-19T09:29:09;10.82;;;7.70;;
47784;SDS011;35233;55.686;37.848;2023-11-19T09:31:34;11.18;;;8.13;;
47784;SDS011;35233;55.686;37.848;2023-11-19T09:34:00;10.43;;;7.30;;
47784;SDS011;35233;55.686;37.848;2023-11-19T09:36:26;11.50;;;7.18;;
47784;SDS011;35233;55.686;37.848;2023-11-19T09:38:52;12.63;;;7.57;;
47784;SDS011;35233;55.686;37.848;2023-11-19T09:41:17;10.95;;;7.40;;
47784;SDS011;35233;55.686;37.848;2023-11-19T09:43:44;11.07;;;7.32;;
47784;SDS011;35233;55.686;37.848;2023-11-19T09:46:12;11.98;;;6.95;;
47784;SDS011;35233;55.686;37.848;2023-11-19T09:48:40;11.05;;;7.15;;
47784;SDS011;35233;55.686;37.848;2023-11-19T09:51:07;13.32;;;7.88;;
47784;SDS011;35233;55.686;37.848;2023-11-19T09:53:36;10.80;;;6.88;;
47784;SDS011;35233;55.686;37.848;2023-11-19T09:56:03;15.40;;;7.95;;
47784;SDS011;35233;55.686;37.848;2023-11-19T09:58:30;10.02;;;6.88;;
47784;SDS011;35233;55.686;37.848;2023-11-19T10:00:56;13.05;;;6.50;;
47784;SDS011;35233;55.686;37.848;2023-11-19T10:03:31;11.05;;;7.28;;
47784;SDS011;35233;55.686;37.848;2023-11-19T10:05:59;12.13;;;7.45;;
47784;SDS011;35233;55.686;37.848;2023-11-19T10:08:26;9.82;;;7.18;;
47784;SDS011;35233;55.686;37.848;2023-11-19T10:10:51;10.55;;;6.85;;
47784;SDS011;35233;55.686;37.848;2023-11-19T10:13:17;11.48;;;7.53;;
47784;SDS011;35233;55.686;37.848;2023-11-19T10:15:43;11.05;;;7.68;;
47784;SDS011;35233;55.686;37.848;2023-11-19T10:18:09;12.15;;;7.57;;
47784;SDS011;35233;55.686;37.848;2023-11-19T10:20:41;12.07;;;7.95;;
47784;SDS011;35233;55.686;37.848;2023-11-19T10:23:08;13.00;;;7.78;;
47784;SDS011;35233;55.686;37.848;2023-11-19T10:25:34;11.07;;;6.75;;
47784;SDS011;35233;55.686;37.848;2023-11-19T10:27:59;12.95;;;7.45;;
47784;SDS011;35233;55.686;37.848;2023-11-19T10:30:26;11.23;;;7.63;;
47784;SDS011;35233;55.686;37.848;2023-11-19T10:33:06;11.90;;;7.55;;
47784;SDS011;35233;55.686;37.848;2023-11-19T10:35:57;10.02;;;7.13;;
47784;SDS011;35233;55.686;37.848;2023-11-19T10:38:23;11.85;;;7.82;;
47784;SDS011;35233;55.686;37.848;2023-11-19T10:40:53;11.80;;;7.55;;
47784;SDS011;35233;55.686;37.848;2023-11-19T10:43:22;11.15;;;7.30;;
47784;SDS011;35233;55.686;37.848;2023-11-19T10:45:48;12.50;;;7.35;;
47784;SDS011;35233;55.686;37.848;2023-11-19T10:48:14;10.48;;;7.00;;
47784;SDS011;35233;55.686;37.848;2023-11-19T10:50:41;10.02;;;6.32;;
47784;SDS011;35233;55.686;37.848;2023-11-19T10:53:08;12.25;;;7.50;;
47784;SDS011;35233;55.686;37.848;2023-11-19T10:55:35;10.32;;;6.80;;
47784;SDS011;35233;55.686;37.848;2023-11-19T10:58:06;13.27;;;7.63;;
47784;SDS011;35233;55.686;37.848;2023-11-19T11:00:39;13.48;;;7.13;;
47784;SDS011;35233;55.686;37.848;2023-11-19T11:03:19;12.93;;;7.95;;
47784;SDS011;35233;55.686;37.848;2023-11-19T11:05:47;12.05;;;7.85;;
47784;SDS011;35233;55.686;37.848;2023-11-19T11:08:14;10.52;;;7.00;;
47784;SDS011;35233;55.686;37.848;2023-11-19T11:10:42;10.30;;;6.53;;
47784;SDS011;35233;55.686;37.848;2023-11-19T11:13:10;10.68;;;7.32;;
47784;SDS011;35233;55.686;37.848;2023-11-19T11:15:37;12.45;;;7.70;;
47784;SDS011;35233;55.686;37.848;2023-11-19T11:18:03;12.35;;;7.03;;
47784;SDS011;35233;55.686;37.848;2023-11-19T11:20:33;12.25;;;7.53;;
47784;SDS011;35233;55.686;37.848;2023-11-19T11:29:24;9.07;;;6.65;;
47784;SDS011;35233;55.686;37.848;2023-11-19T11:32:01;20.38;;;7.30;;
47784;SDS011;35233;55.686;37.848;2023-11-19T11:37:22;12.00;;;7.18;;
47784;SDS011;35233;55.686;37.848;2023-11-19T11:40:00;11.20;;;7.38;;
47784;SDS011;35233;55.686;37.848;2023-11-19T11:42:37;11.57;;;6.80;;
47784;SDS011;35233;55.686;37.848;2023-11-19T11:50:10;12.38;;;7.35;;
47784;SDS011;35233;55.686;37.848;2023-11-19T11:55:37;11.00;;;7.53;;
47784;SDS011;35233;55.686;37.848;2023-11-19T11:58:10;12.88;;;7.40;;
47784;SDS011;35233;55.686;37.848;2023-11-19T12:00:39;11.63;;;7.18;;
47784;SDS011;35233;55.686;37.848;2023-11-19T12:03:06;10.95;;;7.10;;
47784;SDS011;35233;55.686;37.848;2023-11-19T12:05:33;12.45;;;7.10;;
47784;SDS011;35233;55.686;37.848;2023-11-19T12:08:04;12.88;;;7.13;;
47784;SDS011;35233;55.686;37.848;2023-11-19T12:10:32;14.70;;;7.53;;
47784;SDS011;35233;55.686;37.848;2023-11-19T12:13:16;12.30;;;7.20;;
47784;SDS011;35233;55.686;37.848;2023-11-19T12:18:31;9.82;;;7.22;;
47784;SDS011;35233;55.686;37.848;2023-11-19T12:20:57;10.68;;;7.25;;
47784;SDS011;35233;55.686;37.848;2023-11-19T12:23:26;11.68;;;7.13;;
47784;SDS011;35233;55.686;37.848;2023-11-19T12:25:54;11.93;;;7.85;;
47784;SDS011;35233;55.686;37.848;2023-11-19T12:28:20;10.35;;;7.45;;
47784;SDS011;35233;55.686;37.848;2023-11-19T12:30:46;12.82;;;7.47;;
47784;SDS011;35233;55.686;37.848;2023-11-19T12:33:14;11.15;;;7.50;;
47784;SDS011;35233;55.686;37.848;2023-11-19T12:35:41;12.05;;;7.57;;
47784;SDS011;35233;55.686;37.848;2023-11-19T12:38:08;10.63;;;7.10;;
47784;SDS011;35233;55.686;37.848;2023-11-19T12:40:43;11.30;;;7.22;;
47784;SDS011;35233;55.686;37.848;2023-11-19T12:43:09;10.32;;;6.70;;
47784;SDS011;35233;55.686;37.848;2023-11-19T12:45:35;11.85;;;7.47;;
47784;SDS011;35233;55.686;37.848;2023-11-19T12:48:06;14.35;;;8.05;;
47784;SDS011;35233;55.686;37.848;2023-11-19T12:50:51;14.77;;;8.48;;
47784;SDS011;35233;55.686;37.848;2023-11-19T12:53:18;14.25;;;8.52;;
47784;SDS011;35233;55.686;37.848;2023-11-19T12:55:44;13.57;;;8.93;;
47784;SDS011;35233;55.686;37.848;2023-11-19T12:58:10;12.50;;;8.40;;
47784;SDS011;35233;55.686;37.848;2023-11-19T13:00:35;13.45;;;8.25;;
47784;SDS011;35233;55.686;37.848;2023-11-19T13:03:01;14.30;;;9.02;;
47784;SDS011;35233;55.686;37.848;2023-11-19T13:05:30;12.90;;;8.00;;
47784;SDS011;35233;55.686;37.848;2023-11-19T13:08:00;15.20;;;8.07;;
47784;SDS011;35233;55.686;37.848;2023-11-19T13:10:58;11.18;;;8.00;;
47784;SDS011;35233;55.686;37.848;2023-11-19T13:13:23;12.38;;;7.97;;
47784;SDS011;35233;55.686;37.848;2023-11-19T13:15:48;12.55;;;8.45;;
47784;SDS011;35233;55.686;37.848;2023-11-19T13:18:15;11.73;;;8.00;;
47784;SDS011;35233;55.686;37.848;2023-11-19T13:20:41;11.35;;;7.72;;
47784;SDS011;35233;55.686;37.848;2023-11-19T13:23:07;11.32;;;7.72;;
47784;SDS011;35233;55.686;37.848;2023-11-19T13:25:36;11.07;;;7.03;;
47784;SDS011;35233;55.686;37.848;2023-11-19T13:28:01;10.90;;;7.20;;
47784;SDS011;35233;55.686;37.848;2023-11-19T13:30:27;10.32;;;7.18;;
47784;SDS011;35233;55.686;37.848;2023-11-19T13:32:54;12.20;;;7.65;;
47784;SDS011;35233;55.686;37.848;2023-11-19T13:35:20;14.60;;;7.50;;
47784;SDS011;35233;55.686;37.848;2023-11-19T13:37:47;12.95;;;7.53;;
47784;SDS011;35233;55.686;37.848;2023-11-19T13:40:12;10.13;;;7.00;;
47784;SDS011;35233;55.686;37.848;2023-11-19T13:42:39;11.32;;;7.35;;
47784;SDS011;35233;55.686;37.848;2023-11-19T13:45:12;11.48;;;7.78;;
47784;SDS011;35233;55.686;37.848;2023-11-19T13:47:39;10.05;;;6.80;;
47784;SDS011;35233;55.686;37.848;2023-11-19T13:50:14;12.75;;;7.20;;
47784;SDS011;35233;55.686;37.848;2023-11-19T13:52:42;10.75;;;6.95;;
47784;SDS011;35233;55.686;37.848;2023-11-19T13:55:10;11.73;;;6.80;;
47784;SDS011;35233;55.686;37.848;2023-11-19T13:57:36;10.57;;;7.38;;
47784;SDS011;35233;55.686;37.848;2023-11-19T14:00:03;13.88;;;6.88;;
47784;SDS011;35233;55.686;37.848;2023-11-19T14:02:31;10.88;;;7.18;;
47784;SDS011;35233;55.686;37.848;2023-11-19T14:04:57;9.25;;;6.90;;
47784;SDS011;35233;55.686;37.848;2023-11-19T14:07:23;11.52;;;7.28;;
47784;SDS011;35233;55.686;37.848;2023-11-19T14:09:48;9.85;;;7.30;;
47784;SDS011;35233;55.686;37.848;2023-11-19T14:12:15;10.13;;;6.68;;
47784;SDS011;35233;55.686;37.848;2023-11-19T14:14:41;9.80;;;6.70;;
47784;SDS011;35233;55.686;37.848;2023-11-19T14:17:07;9.80;;;7.13;;
47784;SDS011;35233;55.686;37.848;2023-11-19T14:19:33;10.65;;;7.32;;
47784;SDS011;35233;55.686;37.848;2023-11-19T14:21:59;10.02;;;7.60;;
47784;SDS011;35233;55.686;37.848;2023-11-19T14:24:25;10.75;;;7.05;;
47784;SDS011;35233;55.686;37.848;2023-11-19T14:26:51;10.20;;;6.65;;
47784;SDS011;35233;55.686;37.848;2023-11-19T14:29:17;11.02;;;7.53;;
47784;SDS011;35233;55.686;37.848;2023-11-19T14:31:42;9.90;;;7.20;;
47784;SDS011;35233;55.686;37.848;2023-11-19T14:34:08;10.23;;;6.82;;
47784;SDS011;35233;55.686;37.848;2023-11-19T14:36:33;10.75;;;7.03;;
47784;SDS011;35233;55.686;37.848;2023-11-19T14:39:00;10.20;;;7.07;;